Time;durP1;ratioP1;P1;durP2;ratioP2;P2;SDS_P1;SDS_P2;PMS_P1;PMS_P2;Temp;Humidity;BMP_temperature;BMP_pressure;BME280_temperature;BME280_humidity;BME280_pressure;Samples;Min_cycle;Max_cycle;Signal;HPM_P1;HPM_P2
2023/10/06 00:00:18;;;;;;;;;;;;;;;10.71;80.23;101012.94;1088071;47;1056;-81
2023/10/06 00:01:25;;;;;;;;;;;;;;;10.71;80.30;101012.94;1088337;54;1023;-80
2023/10/06 00:02:44;;;;;;;;;;;;;;;10.73;80.51;101010.13;1088198;54;1165;-80
2023/10/06 00:03:57;;;;;;;;;;;;;;;10.73;80.26;101013.66;1088418;54;1371;-81
2023/10/06 00:05:01;;;;;;;;;;;;;;;10.72;80.27;101005.78;1088400;54;1015;-80
2023/10/06 00:06:21;;;;;;;;;;;;;;;10.75;80.10;101009.06;1088449;54;1066;-81
2023/10/06 00:07:24;;;;;;;;;;;;;;;10.75;80.39;101006.38;1088559;54;1183;-82
2023/10/06 00:08:40;;;;;;;;;;;;;;;10.73;80.36;101007.44;1088416;54;1293;-81
2023/10/06 00:09:43;;;;;;;;;;;;;;;10.72;80.43;101003.94;1088521;54;1120;-81
2023/10/06 00:11:10;;;;;;;;;;;;;;;10.67;80.62;101008.81;1088647;54;1149;-81
2023/10/06 00:12:13;;;;;;;;;;;;;;;10.63;80.74;101007.34;1088567;54;1165;-80
2023/10/06 00:13:19;;;;;;;;;;;;;;;10.60;80.92;101005.78;1088552;54;1283;-81
2023/10/06 00:14:39;;;;;;;;;;;;;;;10.56;80.73;101006.97;1088677;54;997;-81
2023/10/06 00:15:49;;;;;;;;;;;;;;;10.55;80.92;101009.78;1088433;54;920;-81
2023/10/06 00:16:56;;;;;;;;;;;;;;;10.56;81.06;101014.16;1088581;47;977;-81
2023/10/06 00:18:07;;;;;;;;;;;;;;;10.62;80.68;101016.34;1088545;54;1361;-83
2023/10/06 00:19:25;;;;;;;;;;;;;;;10.60;80.53;101016.47;1088789;54;1020;-83
2023/10/06 00:20:39;;;;;;;;;;;;;;;10.67;80.57;101014.16;1088831;54;966;-81
2023/10/06 00:21:46;;;;;;;;;;;;;;;10.66;80.30;101016.94;1088404;47;1238;-82
2023/10/06 00:23:06;;;;;;;;;;;;;;;10.57;80.94;101014.03;1088498;54;1860;-81
2023/10/06 00:24:10;;;;;;;;;;;;;;;10.55;81.04;101015.13;1088370;54;1073;-82
2023/10/06 00:25:24;;;;;;;;;;;;;;;10.53;80.96;101009.03;1088520;54;840;-81
2023/10/06 00:32:27;;;;;;;;;;;;;;;10.32;81.61;101015.06;1088604;46;868;-80
2023/10/06 00:33:32;;;;;;;;;;;;;;;10.29;81.57;101021.50;1088472;54;1448;-81
2023/10/06 00:34:44;;;;;;;;;;;;;;;10.27;81.91;101014.59;1088475;54;738;-81
2023/10/06 00:35:48;;;;;;;;;;;;;;;10.26;81.65;101007.53;1088522;54;1160;-79
2023/10/06 00:36:54;;;;;;;;;;;;;;;10.23;81.81;101015.78;1088196;54;1019;-80
2023/10/06 00:37:58;;;;;;;;;;;;;;;10.22;81.57;101008.72;1087718;54;1328;-80
2023/10/06 00:39:11;;;;;;;;;;;;;;;10.20;81.61;101011.53;1088259;54;1063;-81
2023/10/06 00:40:19;;;;;;;;;;;;;;;10.21;81.55;101009.69;1088571;54;1062;-80
2023/10/06 00:41:22;;;;;;;;;;;;;;;10.19;81.40;101011.66;1088328;54;1094;-80
2023/10/06 00:42:27;;;;;;;;;;;;;;;10.20;81.14;101011.53;1088461;54;1430;-81
2023/10/06 00:43:30;;;;;;;;;;;;;;;10.26;81.13;101015.56;1088432;54;1861;-81
2023/10/06 00:46:14;;;;;;;;;;;;;;;10.38;80.73;101003.06;1088825;47;1018;-81
2023/10/06 00:47:15;;;;;;;;;;;;;;;10.43;80.45;100996.41;1088692;54;1177;-80
2023/10/06 00:48:28;;;;;;;;;;;;;;;10.45;80.43;100996.28;1088291;47;1150;-80
2023/10/06 00:49:33;;;;;;;;;;;;;;;10.52;80.09;100993.97;1088363;46;1043;-80
2023/10/06 00:50:36;;;;;;;;;;;;;;;10.55;79.62;100989.22;1088333;47;1170;-81
2023/10/06 00:51:41;;;;;;;;;;;;;;;10.60;79.65;101002.22;1088211;47;1133;-81
2023/10/06 00:52:42;;;;;;;;;;;;;;;10.51;79.59;101003.84;1088389;54;1102;-81
2023/10/06 00:54:03;;;;;;;;;;;;;;;10.45;80.01;100994.47;1088248;54;1407;-81
2023/10/06 00:55:06;;;;;;;;;;;;;;;10.41;79.72;100994.81;1088149;54;1146;-81
2023/10/06 00:56:15;;;;;;;;;;;;;;;10.41;79.86;100993.00;1088201;47;1305;-80
2023/10/06 00:57:38;;;;;;;;;;;;;;;10.35;79.66;100998.81;1088401;47;947;-80
2023/10/06 00:58:42;;;;;;;;;;;;;;;10.32;80.08;100993.69;1088141;54;1179;-80
2023/10/06 00:59:43;;;;;;;;;;;;;;;10.29;80.21;100988.59;1088255;54;1123;-81
2023/10/06 01:00:46;;;;;;;;;;;;;;;10.23;80.24;100989.94;1087906;47;1437;-80
2023/10/06 01:01:49;;;;;;;;;;;;;;;10.18;80.25;100985.91;1087960;47;1028;-80
2023/10/06 01:02:54;;;;;;;;;;;;;;;10.10;80.92;100987.34;1088012;54;1068;-80
2023/10/06 01:04:00;;;;;;;;;;;;;;;10.06;81.01;100988.56;1088045;54;1403;-80
2023/10/06 01:05:15;;;;;;;;;;;;;;;10.05;80.96;100986.00;1087583;47;1032;-80
2023/10/06 01:06:22;;;;;;;;;;;;;;;9.97;81.11;100990.09;1087847;47;1044;-81
2023/10/06 01:07:26;;;;;;;;;;;;;;;9.94;81.48;100982.34;1087759;54;1176;-80
2023/10/06 01:10:07;;;;;;;;;;;;;;;9.89;81.63;100981.81;1087895;47;873;-80
2023/10/06 01:11:11;;;;;;;;;;;;;;;9.86;82.06;100984.75;1087653;47;968;-80
2023/10/06 01:12:39;;;;;;;;;;;;;;;9.87;82.14;100988.25;1087652;47;1190;-81
2023/10/06 01:13:52;;;;;;;;;;;;;;;9.82;82.23;100973.44;1087585;54;1454;-79
2023/10/06 01:15:16;;;;;;;;;;;;;;;9.82;82.24;100981.44;1087364;47;974;-79
2023/10/06 01:16:17;;;;;;;;;;;;;;;9.75;82.31;100974.88;1086393;54;1155;-79
2023/10/06 01:17:21;;;;;;;;;;;;;;;9.75;82.78;100984.72;1086930;47;1071;-78
2023/10/06 01:18:35;;;;;;;;;;;;;;;9.75;82.83;100985.56;1086660;54;1166;-78
2023/10/06 01:19:47;;;;;;;;;;;;;;;9.75;82.50;100984.72;1086240;47;1151;-80
2023/10/06 01:20:48;;;;;;;;;;;;;;;9.73;82.71;100983.97;1086336;47;1471;-79
2023/10/06 01:22:07;;;;;;;;;;;;;;;9.70;82.29;100985.06;1086350;54;1051;-80
2023/10/06 01:23:19;;;;;;;;;;;;;;;9.68;82.59;100984.31;1086234;54;1931;-78
2023/10/06 12:45:17;;;;;;;;;;;;;;;19.47;48.88;100735.69;1086707;54;1337;-79
2023/10/06 12:46:20;;;;;;;;;;;;;;;19.55;48.72;100731.22;1086237;47;1366;-80
2023/10/06 12:47:24;;;;;;;;;;;;;;;19.56;48.49;100725.59;1087053;47;987;-79
2023/10/06 12:48:38;;;;;;;;;;;;;;;19.61;48.14;100738.59;1087923;54;1109;-80
2023/10/06 12:49:47;;;;;;;;;;;;;;;19.57;48.38;100731.84;1087771;54;1087;-81
2023/10/06 12:50:56;;;;;;;;;;;;;;;19.56;48.50;100731.03;1087635;47;907;-78
2023/10/06 12:51:59;;;;;;;;;;;;;;;19.52;48.27;100726.16;1086806;54;1182;-79
2023/10/06 12:53:00;;;;;;;;;;;;;;;19.49;48.38;100725.50;1085673;47;1487;-80
2023/10/06 12:54:04;;;;;;;;;;;;;;;19.59;48.10;100729.81;1085539;54;1394;-80
2023/10/06 12:55:10;;;;;;;;;;;;;;;19.58;48.36;100725.41;1086525;54;1090;-79
2023/10/06 12:56:22;;;;;;;;;;;;;;;19.67;48.17;100727.00;1088021;47;1139;-82
2023/10/06 12:57:24;;;;;;;;;;;;;;;19.67;47.89;100727.00;1087383;47;1190;-82
2023/10/06 12:58:29;;;;;;;;;;;;;;;19.67;47.84;100724.28;1087356;54;1167;-81
2023/10/06 14:11:54;;;;;;;;;;;;;;;19.99;44.59;100656.22;1088151;47;922;-82
2023/10/06 14:13:16;;;;;;;;;;;;;;;19.93;44.71;100653.28;1088234;47;970;-81
2023/10/06 14:17:52;;;;;;;;;;;;;;;;;;;;;
2023/10/06 14:19:03;;;;;;;;;;;;;;;19.87;44.66;100645.06;1088524;46;990;-82
2023/10/06 14:20:31;;;;;;;;;;;;;;;19.82;45.35;100653.72;1088401;47;1013;-81
2023/10/06 14:21:43;;;;;;;;;;;;;;;19.87;45.20;100647.75;1088482;47;932;-81
2023/10/06 15:00:42;;;;;;;;;;;;;;;19.92;43.93;100632.59;1087641;54;1139;-82
2023/10/06 15:01:43;;;;;;;;;;;;;;;19.92;44.17;100635.31;1087944;47;1333;-82
2023/10/06 15:02:50;;;;;;;;;;;;;;;19.90;44.33;100628.41;1087902;47;1109;-81
2023/10/06 15:03:59;;;;;;;;;;;;;;;19.89;44.71;100632.97;1087823;54;1852;-81
2023/10/06 15:05:03;;;;;;;;;;;;;;;19.90;44.51;100639.25;1088114;47;994;-81
2023/10/06 15:06:14;;;;;;;;;;;;;;;19.87;44.72;100640.47;1088094;47;977;-81
2023/10/06 15:07:19;;;;;;;;;;;;;;;19.87;44.50;100636.91;1088125;54;1523;-83
2023/10/06 15:08:28;;;;;;;;;;;;;;;19.83;44.73;100632.88;1088068;54;1186;-82
2023/10/06 15:09:31;;;;;;;;;;;;;;;19.85;44.53;100636.22;1087853;54;1110;-81
2023/10/06 15:10:33;;;;;;;;;;;;;;;19.87;44.44;100631.50;1087973;54;1190;-81
2023/10/06 15:11:34;;;;;;;;;;;;;;;19.90;44.59;100628.41;1087828;46;1000;-82
2023/10/06 15:12:42;;;;;;;;;;;;;;;19.91;44.58;100630.09;1088123;54;1071;-81
2023/10/06 15:13:46;;;;;;;;;;;;;;;19.89;44.42;100627.53;1088280;54;1236;-81
2023/10/06 15:14:57;;;;;;;;;;;;;;;19.91;44.31;100625.47;1088262;54;998;-82
2023/10/06 15:16:02;;;;;;;;;;;;;;;19.91;44.74;100619.22;1088318;54;1113;-79
2023/10/06 15:17:11;;;;;;;;;;;;;;;19.91;44.90;100624.66;1088307;54;1003;-82
2023/10/06 15:18:18;;;;;;;;;;;;;;;19.87;44.69;100624.22;1088262;47;845;-82
2023/10/06 15:19:24;;;;;;;;;;;;;;;19.90;44.49;100622.97;1088300;47;1044;-81
2023/10/06 15:20:26;;;;;;;;;;;;;;;19.87;44.52;100626.91;1088244;47;1035;-81
2023/10/06 15:21:27;;;;;;;;;;;;;;;19.86;44.70;100622.53;1088191;54;957;-81
2023/10/06 15:22:30;;;;;;;;;;;;;;;19.90;44.83;100625.69;1088381;54;1364;-79
2023/10/06 15:23:31;;;;;;;;;;;;;;;19.85;44.70;100622.66;1087978;47;1286;-81
2023/10/06 15:24:36;;;;;;;;;;;;;;;19.87;44.96;100623.34;1088111;54;1876;-80
2023/10/06 15:25:53;;;;;;;;;;;;;;;19.89;44.84;100622.13;1088362;46;996;-81
2023/10/06 15:26:56;;;;;;;;;;;;;;;19.93;45.04;100620.72;1088255;47;1103;-80
2023/10/06 15:27:57;;;;;;;;;;;;;;;19.90;44.82;100617.53;1088310;47;999;-82
2023/10/06 15:29:01;;;;;;;;;;;;;;;19.94;44.30;100618.81;1088418;54;935;-82
2023/10/06 15:30:04;;;;;;;;;;;;;;;19.94;44.49;100621.53;1088398;54;1457;-81
2023/10/06 15:31:13;;;;;;;;;;;;;;;19.91;45.27;100621.94;1088498;47;988;-82
2023/10/06 15:32:17;;;;;;;;;;;;;;;19.84;45.23;100623.72;1088776;54;927;-82
2023/10/06 15:34:49;;;;;;;;;;;;;;;19.78;45.08;100623.44;1088668;54;1079;-81
2023/10/06 15:35:52;;;;;;;;;;;;;;;19.79;44.98;100627.84;1088679;46;959;-82
2023/10/06 15:36:57;;;;;;;;;;;;;;;19.78;44.83;100626.16;1088367;46;1091;-82
2023/10/06 15:38:25;;;;;;;;;;;;;;;19.77;44.74;100627.19;1088442;54;942;-83
2023/10/06 15:39:35;;;;;;;;;;;;;;;19.73;44.88;100634.03;1088347;47;945;-82
2023/10/06 15:40:48;;;;;;;;;;;;;;;19.75;44.53;100629.22;1088399;47;1307;-81
2023/10/06 15:45:45;;;;;;;;;;;;;;;19.70;44.34;100634.41;1088653;46;1071;-83
2023/10/06 15:48:56;;;;;;;;;;;;;;;19.61;44.17;100630.13;1088548;46;915;-81
2023/10/06 15:50:48;;;;;;;;;;;;;;;19.59;43.86;100624.91;1088648;47;1017;-80
2023/10/06 22:07:08;;;;;;;;;;;;;;;12.16;69.88;100750.06;1087434;54;1907;-83
2023/10/06 22:21:45;;;;;;;;;;;;;;;12.10;69.88;100739.88;1089000;54;787;-82
2023/10/06 22:22:50;;;;;;;;;;;;;;;12.08;70.02;100745.38;1088726;46;955;-82
2023/10/06 22:23:53;;;;;;;;;;;;;;;12.08;70.15;100742.72;1088190;54;1219;-84
2023/10/06 22:24:56;;;;;;;;;;;;;;;12.10;70.06;100745.25;1088330;47;978;-81
2023/10/06 22:26:00;;;;;;;;;;;;;;;12.08;69.95;100733.84;1088368;54;988;-81
2023/10/06 22:27:06;;;;;;;;;;;;;;;12.09;69.86;100741.72;1088493;54;1094;-82
2023/10/06 22:28:21;;;;;;;;;;;;;;;12.08;69.96;100745.38;1088347;47;939;-80
2023/10/06 22:29:27;;;;;;;;;;;;;;;12.09;69.83;100738.22;1088416;47;914;-82
2023/10/06 22:30:31;;;;;;;;;;;;;;;12.08;70.09;100744.56;1088598;46;886;-81
2023/10/06 22:31:36;;;;;;;;;;;;;;;12.06;70.07;100744.66;1088245;47;863;-82
2023/10/06 22:32:40;;;;;;;;;;;;;;;12.06;70.18;100746.50;1088458;47;891;-82
2023/10/06 22:33:49;;;;;;;;;;;;;;;12.01;70.20;100742.41;1088301;47;1313;-82
2023/10/06 22:34:58;;;;;;;;;;;;;;;12.00;70.14;100745.22;1088205;46;909;-80
2023/10/06 22:36:02;;;;;;;;;;;;;;;11.97;70.26;100743.69;1088242;54;1079;-81
2023/10/06 22:37:08;;;;;;;;;;;;;;;11.99;70.62;100744.41;1088148;47;983;-81
2023/10/06 22:38:12;;;;;;;;;;;;;;;12.01;70.06;100738.88;1088214;47;1882;-81
2023/10/06 22:39:19;;;;;;;;;;;;;;;12.00;70.16;100747.91;1088554;46;1005;-82
2023/10/06 22:40:27;;;;;;;;;;;;;;;12.02;70.21;100741.41;1088492;54;1100;-82
2023/10/06 22:41:31;;;;;;;;;;;;;;;12.01;70.21;100741.56;1088265;47;908;-83
2023/10/06 22:42:31;;;;;;;;;;;;;;;11.99;70.23;100739.03;1088207;46;919;-80
2023/10/06 22:43:35;;;;;;;;;;;;;;;12.05;70.16;100742.13;1086445;54;1456;-80
2023/10/06 22:44:35;;;;;;;;;;;;;;;12.00;70.32;100742.56;1085549;47;1043;-78
2023/10/06 22:45:40;;;;;;;;;;;;;;;12.02;70.37;100738.75;1085353;54;1458;-79
2023/10/06 22:46:41;;;;;;;;;;;;;;;11.98;70.50;100741.84;1088213;54;1088;-81
2023/10/06 22:47:42;;;;;;;;;;;;;;;11.98;70.46;100734.66;1088479;54;1032;-81
2023/10/06 22:48:48;;;;;;;;;;;;;;;11.97;70.71;100735.63;1088448;46;1306;-82
2023/10/06 22:49:53;;;;;;;;;;;;;;;11.93;70.40;100730.66;1088512;47;939;-82
2023/10/06 22:50:56;;;;;;;;;;;;;;;11.88;70.66;100741.78;1088388;46;1005;-83
2023/10/06 22:51:59;;;;;;;;;;;;;;;11.92;70.71;100734.31;1088266;47;1060;-81
2023/10/06 22:53:06;;;;;;;;;;;;;;;11.90;70.57;100729.13;1088446;46;916;-82
2023/10/06 22:54:08;;;;;;;;;;;;;;;11.95;70.52;100731.38;1088589;46;1362;-83
2023/10/06 22:55:21;;;;;;;;;;;;;;;11.98;70.24;100726.63;1088502;47;914;-82
2023/10/06 22:56:22;;;;;;;;;;;;;;;11.98;70.36;100726.63;1088380;54;948;-82
2023/10/06 22:57:25;;;;;;;;;;;;;;;11.92;70.65;100732.47;1088373;54;957;-80
2023/10/06 22:58:28;;;;;;;;;;;;;;;11.90;70.95;100731.78;1086734;54;1866;-81
2023/10/06 22:59:32;;;;;;;;;;;;;;;11.90;70.71;100731.78;1086590;47;1118;-77
2023/10/06 23:00:34;;;;;;;;;;;;;;;11.89;70.54;100732.78;1086556;54;1488;-80
2023/10/06 23:01:38;;;;;;;;;;;;;;;11.89;70.57;100734.59;1087001;46;1122;-79
2023/10/06 23:02:41;;;;;;;;;;;;;;;11.83;70.77;100728.81;1087071;47;1536;-79
2023/10/06 23:03:47;;;;;;;;;;;;;;;11.84;70.71;100729.63;1086896;54;1320;-81
2023/10/06 23:04:48;;;;;;;;;;;;;;;11.85;70.67;100726.81;1087610;47;1035;-80
2023/10/06 23:05:59;;;;;;;;;;;;;;;11.80;70.70;100734.41;1088280;54;1056;-81
2023/10/06 23:07:00;;;;;;;;;;;;;;;11.80;70.96;100733.59;1088096;54;1008;-81
2023/10/06 23:08:11;;;;;;;;;;;;;;;11.77;71.14;100728.50;1088004;54;1402;-80
2023/10/06 23:09:17;;;;;;;;;;;;;;;11.75;70.98;100727.78;1088067;54;1453;-81
2023/10/06 23:10:23;;;;;;;;;;;;;;;11.76;71.06;100732.16;1088175;54;1099;-83
2023/10/06 23:11:23;;;;;;;;;;;;;;;11.77;71.01;100731.16;1088060;54;1058;-81
2023/10/06 23:12:24;;;;;;;;;;;;;;;11.72;70.84;100720.88;1088067;54;1119;-81
2023/10/06 23:13:32;;;;;;;;;;;;;;;11.70;70.92;100734.41;1088180;54;1354;-80
2023/10/06 23:14:36;;;;;;;;;;;;;;;11.66;71.31;100724.09;1088079;47;967;-81
2023/10/06 23:15:46;;;;;;;;;;;;;;;11.70;70.96;100728.19;1087848;46;1015;-81
2023/10/06 23:16:48;;;;;;;;;;;;;;;11.67;71.15;100733.78;1087723;46;1108;-80
2023/10/06 23:17:53;;;;;;;;;;;;;;;11.64;71.02;100734.91;1087989;54;1862;-80
2023/10/06 23:18:56;;;;;;;;;;;;;;;11.63;71.04;100730.53;1087579;54;1078;-80
2023/10/06 23:20:00;;;;;;;;;;;;;;;11.66;71.10;100729.44;1086966;54;1486;-80
2023/10/06 23:21:12;;;;;;;;;;;;;;;11.63;71.13;100732.38;1087811;47;1126;-80
2023/10/06 23:22:15;;;;;;;;;;;;;;;11.67;71.09;100731.97;1087659;54;1187;-82
2023/10/06 23:23:19;;;;;;;;;;;;;;;11.66;70.87;100734.81;1087610;54;1601;-80
2023/10/06 23:24:24;;;;;;;;;;;;;;;11.62;71.33;100730.69;1087786;46;963;-81
2023/10/06 23:25:35;;;;;;;;;;;;;;;11.62;71.27;100731.53;1087625;47;1150;-82
2023/10/06 23:26:40;;;;;;;;;;;;;;;11.63;71.24;100733.22;1087801;54;1375;-82
2023/10/06 23:27:41;;;;;;;;;;;;;;;11.63;71.18;100732.38;1088230;54;1114;-82
2023/10/06 23:28:46;;;;;;;;;;;;;;;11.58;71.37;100730.13;1087705;47;1099;-81
2023/10/06 23:29:47;;;;;;;;;;;;;;;11.57;71.45;100732.94;1087749;54;1077;-82
2023/10/06 23:30:55;;;;;;;;;;;;;;;11.58;71.69;100732.78;1087747;54;1646;-80
2023/10/06 23:31:58;;;;;;;;;;;;;;;11.57;71.33;100733.78;1087661;47;1098;-81
2023/10/06 23:33:03;;;;;;;;;;;;;;;11.61;71.19;100735.22;1087653;46;1024;-80
2023/10/06 23:34:19;;;;;;;;;;;;;;;11.58;71.30;100729.25;1087789;54;1402;-79
2023/10/06 23:35:25;;;;;;;;;;;;;;;11.62;71.41;100725.34;1087783;54;1064;-81
2023/10/06 23:36:26;;;;;;;;;;;;;;;11.58;71.47;100730.13;1087962;47;1107;-80
2023/10/06 23:37:30;;;;;;;;;;;;;;;11.58;71.23;100732.78;1087819;54;1490;-81
2023/10/06 23:38:33;;;;;;;;;;;;;;;11.53;71.87;100737.69;1088085;46;1837;-80
2023/10/06 23:39:38;;;;;;;;;;;;;;;11.56;71.53;100732.06;1088174;54;1091;-80
2023/10/06 23:40:42;;;;;;;;;;;;;;;11.59;71.42;100731.81;1088354;54;1099;-82
2023/10/06 23:41:46;;;;;;;;;;;;;;;11.57;71.62;100736.44;1088184;47;1028;-81
2023/10/06 23:42:48;;;;;;;;;;;;;;;11.59;71.30;100734.50;1088268;47;975;-82
2023/10/06 23:44:06;;;;;;;;;;;;;;;11.64;70.99;100734.91;1088332;54;1634;-82
2023/10/06 23:45:14;;;;;;;;;;;;;;;11.57;71.26;100744.47;1088403;46;910;-82
2023/10/06 23:46:21;;;;;;;;;;;;;;;11.66;70.95;100732.97;1088559;54;997;-84
2023/10/06 23:47:23;;;;;;;;;;;;;;;11.71;70.81;100736.06;1088509;54;1082;-84
2023/10/06 23:48:28;;;;;;;;;;;;;;;11.61;71.37;100729.84;1088651;46;997;-83
2023/10/06 23:49:34;;;;;;;;;;;;;;;11.65;70.96;100733.09;1088822;47;960;-83
2023/10/06 23:50:41;;;;;;;;;;;;;;;11.70;70.85;100738.91;1088674;47;1011;-83
2023/10/06 23:51:48;;;;;;;;;;;;;;;11.70;70.71;100731.72;1088351;47;913;-82
2023/10/06 23:52:51;;;;;;;;;;;;;;;11.70;70.74;100747.78;1088553;54;1016;-82
2023/10/06 23:54:08;;;;;;;;;;;;;;;11.62;71.23;100736.88;1088512;54;1450;-83
2023/10/06 23:55:31;;;;;;;;;;;;;;;11.70;71.04;100739.75;1088541;47;982;-83
2023/10/06 23:56:38;;;;;;;;;;;;;;;11.69;70.93;100743.41;1088437;54;1169;-83
2023/10/06 23:57:47;;;;;;;;;;;;;;;11.65;71.10;100736.63;1088455;46;969;-83
2023/10/06 23:58:52;;;;;;;;;;;;;;;11.73;70.88;100735.09;1088393;54;1856;-83
2023/10/06 23:59:55;;;;;;;;;;;;;;;11.75;70.52;100735.81;1088368;54;963;-82
